Time;durP1;ratioP1;P1;durP2;ratioP2;P2;SDS_P1;SDS_P2;PMS_P1;PMS_P2;Temp;Humidity;BMP_temperature;BMP_pressure;BME280_temperature;BME280_humidity;BME280_pressure;Samples;Min_cycle;Max_cycle;Signal;HPM_P1;HPM_P2
2022/03/07 00:02:22;;;;;;;8.63;5.85;;;6.00;90.50;;;;;;5071594;28;20020;-83
2022/03/07 00:04:47;;;;;;;9.93;6.20;;;6.00;90.50;;;;;;5071391;28;20051;-83
2022/03/07 00:07:13;;;;;;;6.68;5.50;;;6.00;90.50;;;;;;5072356;28;20024;-82
2022/03/07 00:09:38;;;;;;;9.32;6.00;;;6.00;90.50;;;;;;5072094;28;20024;-82
2022/03/07 00:12:04;;;;;;;9.10;6.22;;;6.00;90.60;;;;;;5071515;28;20036;-83
2022/03/07 00:14:30;;;;;;;8.40;6.03;;;6.00;90.60;;;;;;5071477;28;20063;-82
2022/03/07 00:16:56;;;;;;;8.13;5.78;;;6.00;90.60;;;;;;5071406;28;20054;-82
2022/03/07 00:19:22;;;;;;;9.57;5.80;;;6.00;90.60;;;;;;5074745;28;20389;-82
2022/03/07 00:21:47;;;;;;;7.55;5.82;;;6.00;90.60;;;;;;5076550;28;20020;-82
2022/03/07 00:24:13;;;;;;;9.20;6.13;;;6.00;90.60;;;;;;5075223;28;20091;-83
2022/03/07 00:26:39;;;;;;;7.88;5.63;;;6.00;90.60;;;;;;5075126;28;20032;-83
2022/03/07 00:29:04;;;;;;;9.10;6.22;;;6.00;90.60;;;;;;5075083;28;20060;-83
2022/03/07 00:31:30;;;;;;;7.00;5.55;;;6.00;90.60;;;;;;5075321;28;20078;-83
2022/03/07 00:33:56;;;;;;;7.25;5.80;;;6.00;90.60;;;;;;5075008;28;20452;-83
2022/03/07 00:36:21;;;;;;;7.80;6.15;;;6.00;90.60;;;;;;5074899;28;20119;-83
2022/03/07 00:38:48;;;;;;;8.50;6.00;;;6.00;90.70;;;;;;5074859;28;20119;-83
2022/03/07 00:41:14;;;;;;;8.50;5.60;;;6.00;90.70;;;;;;5074879;28;20494;-82
2022/03/07 00:43:40;;;;;;;10.25;6.05;;;6.00;90.70;;;;;;5074815;28;20020;-83
2022/03/07 00:46:06;;;;;;;7.88;5.82;;;6.00;90.70;;;;;;5074846;28;20484;-82
2022/03/07 00:48:32;;;;;;;9.80;6.07;;;5.90;90.60;;;;;;5074777;28;20077;-83
2022/03/07 00:50:58;;;;;;;9.65;6.10;;;6.00;90.70;;;;;;5074723;28;20037;-82
2022/03/07 00:53:26;;;;;;;12.50;6.93;;;5.90;90.70;;;;;;5074613;28;20050;-82
2022/03/07 00:55:53;;;;;;;9.00;5.72;;;5.90;90.70;;;;;;5074572;28;20392;-83
2022/03/07 00:58:19;;;;;;;9.50;6.22;;;6.00;90.70;;;;;;5074500;28;20073;-83
2022/03/07 01:00:45;;;;;;;8.95;6.40;;;6.00;90.70;;;;;;5074813;28;20025;-83
2022/03/07 01:03:13;;;;;;;8.07;6.10;;;5.90;90.70;;;;;;5074482;28;20020;-83
2022/03/07 01:05:40;;;;;;;9.35;6.25;;;5.90;90.70;;;;;;5075538;28;20045;-83
2022/03/07 01:08:07;;;;;;;8.75;6.15;;;5.90;90.70;;;;;;5057678;28;20032;-82
2022/03/07 01:10:33;;;;;;;8.00;5.60;;;5.90;90.70;;;;;;5057651;28;20024;-83
2022/03/07 01:12:59;;;;;;;8.23;5.70;;;5.90;90.70;;;;;;5075561;28;20036;-83
2022/03/07 01:15:24;;;;;;;10.20;6.07;;;5.90;90.70;;;;;;5075510;28;20027;-83
2022/03/07 01:17:50;;;;;;;7.43;5.45;;;5.90;90.70;;;;;;5057407;28;20028;-82
2022/03/07 01:20:16;;;;;;;7.72;5.22;;;5.90;90.70;;;;;;5075466;28;20028;-83
2022/03/07 01:22:41;;;;;;;10.82;6.32;;;5.90;90.70;;;;;;5057443;28;20074;-83
2022/03/07 01:25:08;;;;;;;9.63;5.90;;;5.90;90.70;;;;;;5057733;28;20029;-83
2022/03/07 01:27:34;;;;;;;9.80;6.28;;;5.90;90.70;;;;;;5057949;28;20454;-83
2022/03/07 01:30:00;;;;;;;8.73;5.57;;;5.90;90.80;;;;;;5074083;28;20052;-83
2022/03/07 01:32:26;;;;;;;7.75;5.90;;;5.90;90.80;;;;;;5075218;28;20395;-83
2022/03/07 01:34:52;;;;;;;8.90;5.75;;;5.90;90.80;;;;;;5057184;28;20071;-83
2022/03/07 01:37:18;;;;;;;9.57;5.97;;;5.90;90.80;;;;;;5057162;28;20484;-83
2022/03/07 01:39:44;;;;;;;10.48;5.80;;;5.80;90.80;;;;;;5057144;28;20028;-83
2022/03/07 01:42:10;;;;;;;8.82;5.55;;;5.80;90.80;;;;;;5075317;28;20029;-83
2022/03/07 01:44:37;;;;;;;7.45;5.13;;;5.80;90.80;;;;;;5074967;28;20025;-83
2022/03/07 01:47:03;;;;;;;8.15;5.88;;;5.80;90.80;;;;;;5074955;28;20025;-83
2022/03/07 01:49:29;;;;;;;7.53;5.20;;;5.80;90.80;;;;;;5075051;28;20087;-82
2022/03/07 01:51:56;;;;;;;6.68;5.22;;;5.80;90.80;;;;;;5056961;28;20029;-82
2022/03/07 01:54:23;;;;;;;7.90;4.97;;;5.80;90.80;;;;;;5056860;28;20396;-83
2022/03/07 01:56:50;;;;;;;6.50;4.88;;;5.80;90.90;;;;;;5056792;28;20047;-82
2022/03/07 01:59:19;;;;;;;8.27;5.35;;;5.80;90.90;;;;;;5056717;28;20031;-83
2022/03/07 02:01:45;;;;;;;7.03;5.28;;;5.80;90.90;;;;;;5056734;28;20031;-83
2022/03/07 02:04:12;;;;;;;7.47;5.07;;;5.80;90.90;;;;;;5056437;28;20108;-83
2022/03/07 02:06:38;;;;;;;7.30;5.13;;;5.80;90.90;;;;;;5056637;28;20495;-83
2022/03/07 02:09:05;;;;;;;7.47;5.18;;;5.80;90.90;;;;;;5056555;28;20027;-83
2022/03/07 02:11:32;;;;;;;7.50;5.05;;;5.80;90.90;;;;;;5056503;28;20028;-83
2022/03/07 02:13:58;;;;;;;8.40;5.15;;;5.80;90.90;;;;;;5056736;28;20093;-83
2022/03/07 02:16:23;;;;;;;6.63;4.90;;;5.80;90.90;;;;;;5074278;28;20103;-83
2022/03/07 02:18:51;;;;;;;6.93;4.88;;;5.80;90.90;;;;;;5074314;28;20096;-83
2022/03/07 02:21:18;;;;;;;8.32;5.45;;;5.80;90.90;;;;;;5074513;28;20025;-83
2022/03/07 02:23:45;;;;;;;8.10;5.25;;;5.80;90.90;;;;;;5074190;28;20100;-83
2022/03/07 02:26:16;;;;;;;7.55;4.95;;;5.70;90.90;;;;;;5056194;28;20027;-83
2022/03/07 02:28:44;;;;;;;7.00;4.80;;;5.70;90.90;;;;;;5056238;28;20020;-82
2022/03/07 02:31:15;;;;;;;6.95;5.15;;;5.70;90.90;;;;;;5056097;28;20020;-82
2022/03/07 02:33:41;;;;;;;7.15;5.20;;;5.70;90.90;;;;;;5056118;28;20025;-82
2022/03/07 02:36:06;;;;;;;9.20;4.95;;;5.70;91.00;;;;;;5056056;28;20029;-82
2022/03/07 02:38:32;;;;;;;7.75;4.93;;;5.70;90.90;;;;;;5055828;28;20028;-83
2022/03/07 02:40:58;;;;;;;8.50;5.13;;;5.70;90.90;;;;;;5055637;28;20035;-83
2022/03/07 02:43:24;;;;;;;7.43;5.10;;;5.70;91.00;;;;;;5073765;28;20388;-83
2022/03/07 02:45:51;;;;;;;6.22;4.78;;;5.70;91.00;;;;;;5055819;28;20020;-83
2022/03/07 02:48:18;;;;;;;7.53;4.88;;;5.70;91.00;;;;;;5055727;28;20028;-82
2022/03/07 02:50:45;;;;;;;6.65;4.57;;;5.70;91.00;;;;;;5055736;28;20056;-82
2022/03/07 02:53:11;;;;;;;6.43;4.28;;;5.70;91.00;;;;;;5055739;28;20035;-83
2022/03/07 02:55:36;;;;;;;7.47;4.47;;;5.70;91.00;;;;;;5055664;28;20028;-83
2022/03/07 02:58:03;;;;;;;6.30;5.15;;;5.70;91.00;;;;;;5055592;28;20499;-83
2022/03/07 03:00:29;;;;;;;6.65;4.60;;;5.60;91.00;;;;;;5055601;28;20532;-83
2022/03/07 03:02:55;;;;;;;8.70;4.93;;;5.60;91.00;;;;;;5055568;28;20024;-83
2022/03/07 03:05:23;;;;;;;6.75;4.72;;;5.60;91.00;;;;;;5063801;28;20052;-83
2022/03/07 03:07:50;;;;;;;6.43;4.38;;;5.60;91.00;;;;;;5073450;28;20024;-83
2022/03/07 03:10:17;;;;;;;6.55;4.45;;;5.60;91.00;;;;;;5072903;28;20415;-83
2022/03/07 03:12:42;;;;;;;8.40;5.53;;;5.60;91.10;;;;;;5072125;28;20472;-83
2022/03/07 03:15:08;;;;;;;7.70;4.80;;;5.60;91.10;;;;;;5072075;28;20020;-83
2022/03/07 03:17:34;;;;;;;7.97;4.43;;;5.60;91.10;;;;;;5071966;28;20036;-82
2022/03/07 03:20:00;;;;;;;7.38;4.90;;;5.60;91.10;;;;;;5072033;28;20070;-83
2022/03/07 03:22:25;;;;;;;7.55;4.78;;;5.60;91.00;;;;;;5072001;28;20115;-83
2022/03/07 03:24:51;;;;;;;5.30;4.13;;;5.60;91.00;;;;;;5071973;28;20021;-82
2022/03/07 03:27:17;;;;;;;6.13;4.78;;;5.60;91.00;;;;;;5071976;28;20440;-82
2022/03/07 03:29:42;;;;;;;7.72;4.63;;;5.60;91.40;;;;;;5073319;28;20090;-83
2022/03/07 03:32:08;;;;;;;7.32;4.28;;;5.50;91.00;;;;;;5071911;28;20031;-83
2022/03/07 03:34:34;;;;;;;7.10;4.70;;;5.50;91.00;;;;;;5071895;28;20039;-83
2022/03/07 03:36:59;;;;;;;5.72;4.40;;;5.50;91.00;;;;;;5071815;28;20594;-82
2022/03/07 03:39:25;;;;;;;5.63;4.25;;;5.50;91.00;;;;;;5073116;28;20495;-82
2022/03/07 03:41:51;;;;;;;8.98;4.70;;;5.50;91.00;;;;;;5071823;28;20173;-83
2022/03/07 03:44:17;;;;;;;7.03;4.80;;;5.50;91.00;;;;;;5071795;28;20029;-83
2022/03/07 03:46:43;;;;;;;6.85;4.60;;;5.50;91.00;;;;;;5071862;28;20036;-83
2022/03/07 03:49:08;;;;;;;6.55;4.57;;;5.50;91.40;;;;;;5071754;28;20112;-83
2022/03/07 03:51:37;;;;;;;8.95;5.00;;;5.50;91.00;;;;;;5072972;28;20028;-83
2022/03/07 03:54:03;;;;;;;6.05;4.60;;;5.50;91.00;;;;;;5074805;28;20035;-83
2022/03/07 03:56:29;;;;;;;5.35;4.35;;;5.50;91.00;;;;;;5075590;28;20119;-83
2022/03/07 03:58:54;;;;;;;7.85;5.13;;;5.50;91.00;;;;;;5075827;28;20034;-83
2022/03/07 04:01:20;;;;;;;7.20;4.85;;;5.50;91.00;;;;;;5077027;28;20388;-82
2022/03/07 04:03:46;;;;;;;6.85;4.72;;;5.50;91.00;;;;;;5075787;28;20031;-83
2022/03/07 04:06:11;;;;;;;8.25;4.93;;;5.50;91.00;;;;;;5075420;28;20102;-83
2022/03/07 04:08:37;;;;;;;6.80;5.00;;;5.40;91.00;;;;;;5075490;28;20111;-83
2022/03/07 04:11:03;;;;;;;8.90;4.82;;;5.40;91.00;;;;;;5075317;28;20029;-83
2022/03/07 04:13:29;;;;;;;7.28;4.93;;;5.50;91.00;;;;;;5075419;28;20035;-83
2022/03/07 04:15:54;;;;;;;6.30;4.57;;;5.40;91.00;;;;;;5076660;28;20025;-83
2022/03/07 04:18:20;;;;;;;5.75;4.63;;;5.40;91.00;;;;;;5075244;28;20066;-83
2022/03/07 04:20:46;;;;;;;6.45;5.07;;;5.40;91.00;;;;;;5075316;28;20077;-83
2022/03/07 04:23:11;;;;;;;6.57;4.75;;;5.40;91.00;;;;;;5075223;28;20104;-83
2022/03/07 04:25:37;;;;;;;5.78;4.45;;;5.40;90.90;;;;;;5075169;28;20024;-83
2022/03/07 04:28:04;;;;;;;8.50;5.18;;;5.40;90.90;;;;;;5075117;28;20033;-83
2022/03/07 04:30:32;;;;;;;5.80;4.53;;;5.40;90.90;;;;;;5075032;28;20480;-83
2022/03/07 04:32:57;;;;;;;7.55;5.07;;;5.40;91.00;;;;;;5075034;28;20028;-83
2022/03/07 04:35:23;;;;;;;7.88;5.13;;;5.40;90.90;;;;;;5075013;28;20397;-83
2022/03/07 04:37:49;;;;;;;6.82;4.85;;;5.40;90.90;;;;;;5074839;28;20036;-83
2022/03/07 04:40:16;;;;;;;8.85;5.53;;;5.40;90.90;;;;;;5076186;28;20020;-83
2022/03/07 04:42:44;;;;;;;6.55;4.68;;;5.30;90.90;;;;;;5074832;28;20119;-83
2022/03/07 04:45:13;;;;;;;5.18;4.55;;;5.30;90.90;;;;;;5074818;28;20115;-83
2022/03/07 04:47:43;;;;;;;7.57;5.15;;;5.30;90.90;;;;;;5076006;28;20427;-83
2022/03/07 04:50:09;;;;;;;5.60;4.90;;;5.30;90.90;;;;;;5074735;28;20530;-83
2022/03/07 04:52:35;;;;;;;7.40;5.25;;;5.30;90.90;;;;;;5076213;28;20016;-83
2022/03/07 04:55:01;;;;;;;7.50;5.13;;;5.30;90.90;;;;;;5075877;28;20024;-83
2022/03/07 04:57:27;;;;;;;6.90;4.85;;;5.30;90.90;;;;;;5074586;28;20024;-83
2022/03/07 04:59:52;;;;;;;6.63;5.25;;;5.30;90.90;;;;;;5075776;28;20075;-83
2022/03/07 05:02:18;;;;;;;7.88;4.93;;;5.30;90.90;;;;;;5074542;28;20073;-83
2022/03/07 05:04:44;;;;;;;9.80;5.28;;;5.30;90.90;;;;;;5075599;28;20400;-83
2022/03/07 05:07:09;;;;;;;7.22;4.95;;;5.30;90.90;;;;;;5057715;28;20095;-83
2022/03/07 05:09:35;;;;;;;7.20;5.22;;;5.30;90.90;;;;;;5057756;28;20025;-83
2022/03/07 05:12:01;;;;;;;7.10;5.32;;;5.30;90.90;;;;;;5057691;28;20029;-82
2022/03/07 05:14:27;;;;;;;8.05;5.15;;;5.30;90.90;;;;;;5057661;28;20024;-83
2022/03/07 05:16:52;;;;;;;8.70;5.45;;;5.30;90.80;;;;;;5057513;28;20388;-83
2022/03/07 05:19:19;;;;;;;10.25;5.85;;;5.30;90.90;;;;;;5057557;28;20050;-83
2022/03/07 05:21:45;;;;;;;7.43;5.57;;;5.30;90.90;;;;;;5057452;28;20024;-83
2022/03/07 05:24:10;;;;;;;7.45;5.43;;;5.20;90.80;;;;;;5075369;28;20482;-83
2022/03/07 05:26:37;;;;;;;7.28;5.68;;;5.20;90.80;;;;;;5057328;28;20029;-83
2022/03/07 05:29:04;;;;;;;7.95;5.60;;;5.20;90.80;;;;;;5057388;28;20107;-83
2022/03/07 05:31:30;;;;;;;8.25;5.60;;;5.20;90.80;;;;;;5057304;28;20024;-83
2022/03/07 05:33:56;;;;;;;8.88;6.18;;;5.20;90.80;;;;;;5057210;28;20078;-83
2022/03/07 05:36:22;;;;;;;11.13;6.22;;;5.20;90.80;;;;;;5075414;28;20384;-83
2022/03/07 05:38:48;;;;;;;8.48;5.63;;;5.20;90.80;;;;;;5057587;28;20531;-82
2022/03/07 05:41:14;;;;;;;9.75;5.93;;;5.20;90.90;;;;;;5056986;28;20067;-83
2022/03/07 05:43:40;;;;;;;9.90;6.07;;;5.20;90.80;;;;;;5057038;28;20017;-82
2022/03/07 05:46:06;;;;;;;8.07;5.68;;;5.20;90.80;;;;;;5056927;28;20218;-82
2022/03/07 05:48:33;;;;;;;8.55;6.05;;;5.20;90.80;;;;;;5056879;28;20115;-83
2022/03/07 05:50:59;;;;;;;7.78;5.78;;;5.20;90.80;;;;;;5056901;28;20523;-83
2022/03/07 05:53:25;;;;;;;11.13;6.57;;;5.20;90.90;;;;;;5056793;28;20025;-83
2022/03/07 05:55:52;;;;;;;8.65;6.03;;;5.20;90.80;;;;;;5056733;28;20033;-83
2022/03/07 05:58:19;;;;;;;8.48;5.93;;;5.20;90.90;;;;;;5056673;28;20025;-83
2022/03/07 06:00:45;;;;;;;8.60;6.32;;;5.10;90.90;;;;;;5056702;28;20071;-83
2022/03/07 06:03:11;;;;;;;8.15;6.35;;;5.10;90.90;;;;;;5056698;28;20024;-83
2022/03/07 06:05:37;;;;;;;10.05;6.72;;;5.10;90.80;;;;;;5066894;28;20047;-82
2022/03/07 06:08:05;;;;;;;9.95;7.30;;;5.10;90.80;;;;;;5073235;28;20502;-83
2022/03/07 06:10:31;;;;;;;10.05;6.90;;;5.20;90.90;;;;;;5073139;28;20024;-83
2022/03/07 06:12:57;;;;;;;10.63;6.82;;;5.10;90.80;;;;;;5073078;28;20028;-83
2022/03/07 06:15:23;;;;;;;8.75;6.38;;;5.10;90.90;;;;;;5073728;28;20061;-83
2022/03/07 06:17:51;;;;;;;10.07;7.28;;;5.10;90.90;;;;;;5072907;28;20370;-82
2022/03/07 06:20:17;;;;;;;9.95;6.85;;;5.10;90.90;;;;;;5074204;28;20027;-82
2022/03/07 06:22:43;;;;;;;13.25;6.97;;;5.10;90.90;;;;;;5072921;28;20025;-82
2022/03/07 06:25:09;;;;;;;9.65;6.50;;;5.20;90.90;;;;;;5074118;28;20491;-83
2022/03/07 06:27:35;;;;;;;10.77;7.38;;;5.20;90.90;;;;;;5072817;28;20036;-83
2022/03/07 06:30:00;;;;;;;11.35;7.05;;;5.20;90.80;;;;;;5072746;28;20025;-83
2022/03/07 06:32:26;;;;;;;8.43;6.70;;;5.20;90.80;;;;;;5074048;28;20170;-83
2022/03/07 06:34:52;;;;;;;9.25;7.30;;;5.30;91.10;;;;;;5072707;28;20481;-82
2022/03/07 06:37:18;;;;;;;10.18;6.80;;;5.30;90.80;;;;;;5072529;28;20031;-82
2022/03/07 06:39:44;;;;;;;10.15;7.15;;;5.30;90.70;;;;;;5072538;28;20027;-82
2022/03/07 06:42:09;;;;;;;9.98;7.45;;;5.40;90.70;;;;;;5073791;28;20113;-82
2022/03/07 06:44:39;;;;;;;10.63;6.88;;;5.50;90.70;;;;;;5072532;28;20112;-82
2022/03/07 06:47:06;;;;;;;8.52;6.07;;;5.50;90.60;;;;;;5072416;28;20028;-82
2022/03/07 06:49:32;;;;;;;11.02;7.13;;;5.60;90.50;;;;;;5072399;28;20028;-82
2022/03/07 06:51:57;;;;;;;11.82;7.00;;;5.70;90.40;;;;;;5072405;28;20082;-82
2022/03/07 06:54:26;;;;;;;9.68;6.90;;;5.80;90.30;;;;;;5072356;28;20024;-82
2022/03/07 06:56:51;;;;;;;8.65;6.43;;;6.00;90.10;;;;;;5072223;28;20495;-82
2022/03/07 06:59:17;;;;;;;10.02;7.03;;;6.00;90.00;;;;;;5072308;28;20107;-82
2022/03/07 07:01:43;;;;;;;9.95;6.57;;;6.10;89.80;;;;;;5072266;28;20468;-82
2022/03/07 07:04:08;;;;;;;7.97;6.43;;;6.20;89.60;;;;;;5072016;28;20021;-82
2022/03/07 07:06:35;;;;;;;10.00;7.07;;;6.20;89.40;;;;;;5055624;28;20028;-82
2022/03/07 07:09:01;;;;;;;10.63;7.07;;;6.30;89.20;;;;;;5055453;28;20020;-82
2022/03/07 07:11:26;;;;;;;11.43;7.72;;;6.30;89.10;;;;;;5073391;28;20170;-82
2022/03/07 07:13:52;;;;;;;18.70;9.18;;;6.40;89.20;;;;;;5055327;28;20025;-81
2022/03/07 07:16:18;;;;;;;24.00;10.30;;;6.40;88.90;;;;;;5055633;28;20016;-81
2022/03/07 07:18:44;;;;;;;25.65;11.23;;;6.40;88.80;;;;;;5055230;28;20519;-81
2022/03/07 07:21:09;;;;;;;28.55;12.60;;;6.50;88.70;;;;;;5055382;28;20027;-81
2022/03/07 07:23:36;;;;;;;28.25;11.85;;;6.50;88.60;;;;;;5055251;28;20017;-81
2022/03/07 07:26:03;;;;;;;26.58;12.35;;;6.50;88.40;;;;;;5055216;28;20028;-81
2022/03/07 07:28:29;;;;;;;32.28;12.25;;;6.60;88.30;;;;;;5054275;28;20040;-81
2022/03/07 07:30:54;;;;;;;28.33;11.75;;;6.70;88.30;;;;;;5055283;28;20036;-81
2022/03/07 07:33:20;;;;;;;30.83;11.32;;;6.70;88.30;;;;;;5055160;28;20042;-81
2022/03/07 07:35:46;;;;;;;11.82;7.85;;;6.70;88.30;;;;;;5055108;28;20078;-82
2022/03/07 07:38:12;;;;;;;13.80;8.55;;;6.30;86.70;;;;;;5076541;28;20029;-81
2022/03/07 07:40:37;;;;;;;14.60;8.38;;;5.30;89.70;;;;;;5055109;28;20031;-81
2022/03/07 07:43:03;;;;;;;12.00;7.75;;;5.30;90.20;;;;;;5055083;28;20081;-82
2022/03/07 07:45:29;;;;;;;10.65;7.88;;;5.60;90.10;;;;;;5055103;28;20491;-81
2022/03/07 07:47:55;;;;;;;12.70;8.45;;;5.80;90.00;;;;;;5055064;28;20455;-81
2022/03/07 07:50:20;;;;;;;14.77;7.35;;;6.00;89.50;;;;;;5055321;28;20028;-81
2022/03/07 07:52:46;;;;;;;11.68;7.78;;;6.20;88.90;;;;;;5072988;28;20028;-81
2022/03/07 07:55:12;;;;;;;11.57;7.25;;;6.40;88.60;;;;;;5054848;28;20078;-81
2022/03/07 07:57:39;;;;;;;12.95;7.47;;;6.50;88.20;;;;;;5072816;28;20028;-82
2022/03/07 08:00:07;;;;;;;10.18;6.95;;;6.60;88.10;;;;;;5054859;28;20024;-81
2022/03/07 08:02:33;;;;;;;10.15;7.28;;;6.70;87.80;;;;;;5054880;28;20021;-82
2022/03/07 08:04:59;;;;;;;9.20;6.88;;;6.80;87.70;;;;;;5072583;28;20048;-81
2022/03/07 08:07:25;;;;;;;10.40;6.90;;;6.90;87.70;;;;;;5054895;28;20483;-82
2022/03/07 08:09:52;;;;;;;11.18;6.65;;;6.90;87.60;;;;;;5055794;28;20404;-82
2022/03/07 08:12:18;;;;;;;10.65;7.38;;;6.90;87.50;;;;;;5054803;28;20032;-82
2022/03/07 08:14:44;;;;;;;8.30;6.28;;;7.00;87.40;;;;;;5054748;28;20036;-82
2022/03/07 08:17:11;;;;;;;9.73;6.30;;;7.00;87.40;;;;;;5054714;28;20435;-81
2022/03/07 08:19:38;;;;;;;9.32;6.30;;;7.00;87.20;;;;;;5054701;28;20024;-81
2022/03/07 08:22:04;;;;;;;8.52;6.30;;;7.10;87.20;;;;;;5054761;28;20447;-82
2022/03/07 08:24:30;;;;;;;9.35;6.47;;;7.10;87.10;;;;;;5054678;28;20115;-81
2022/03/07 08:26:55;;;;;;;8.70;6.50;;;7.10;86.90;;;;;;5054653;28;20060;-81
2022/03/07 08:29:21;;;;;;;11.30;6.85;;;7.10;86.90;;;;;;5072897;28;20029;-81
2022/03/07 08:31:47;;;;;;;8.77;6.32;;;7.20;87.00;;;;;;5054892;28;20039;-81
2022/03/07 08:34:12;;;;;;;12.48;6.95;;;7.20;86.90;;;;;;5054630;28;20063;-81
2022/03/07 08:36:38;;;;;;;9.68;6.78;;;7.20;86.80;;;;;;5054555;28;20020;-81
2022/03/07 08:39:04;;;;;;;11.27;6.32;;;7.30;86.70;;;;;;5055909;28;20388;-82
2022/03/07 08:41:30;;;;;;;8.05;6.15;;;7.30;86.60;;;;;;5058249;28;20086;-82
2022/03/07 08:43:55;;;;;;;9.35;5.80;;;7.30;86.50;;;;;;5058144;28;20017;-81
2022/03/07 08:46:22;;;;;;;9.55;6.80;;;7.30;86.30;;;;;;5058226;28;20036;-81
2022/03/07 08:48:48;;;;;;;7.32;5.85;;;7.40;86.20;;;;;;5058072;28;20082;-81
2022/03/07 08:51:14;;;;;;;9.02;5.70;;;7.40;86.20;;;;;;5058083;28;20115;-82
2022/03/07 08:53:39;;;;;;;7.50;5.80;;;7.40;86.00;;;;;;5076007;28;20028;-82
2022/03/07 08:56:05;;;;;;;12.02;6.07;;;7.50;86.00;;;;;;5057919;28;20021;-82
2022/03/07 08:58:31;;;;;;;9.55;6.25;;;7.60;85.90;;;;;;5058204;28;20063;-82
2022/03/07 09:00:57;;;;;;;10.70;6.25;;;7.60;85.80;;;;;;5076128;28;20074;-83
2022/03/07 09:03:22;;;;;;;9.25;5.85;;;7.60;85.60;;;;;;5057874;28;20027;-83
2022/03/07 09:05:48;;;;;;;8.98;6.05;;;7.70;85.60;;;;;;5069872;28;20048;-84
2022/03/07 09:08:14;;;;;;;9.43;5.95;;;7.70;85.50;;;;;;5074650;28;20084;-84
2022/03/07 09:10:39;;;;;;;8.07;5.55;;;7.70;85.50;;;;;;5074530;28;20027;-84
2022/03/07 09:13:05;;;;;;;9.85;6.18;;;7.70;85.30;;;;;;5074924;28;20426;-84
2022/03/07 09:15:31;;;;;;;10.82;6.05;;;7.80;85.20;;;;;;5075807;28;20426;-84
2022/03/07 09:17:57;;;;;;;9.07;5.78;;;7.80;85.00;;;;;;5074294;28;20032;-84
2022/03/07 09:20:22;;;;;;;8.23;5.85;;;7.80;84.60;;;;;;5074335;28;20055;-83
2022/03/07 09:22:48;;;;;;;10.40;6.25;;;7.80;84.60;;;;;;5074268;28;20070;-83
2022/03/07 09:25:15;;;;;;;9.50;5.85;;;7.80;84.50;;;;;;5074232;28;20017;-83
2022/03/07 09:27:43;;;;;;;8.15;5.93;;;7.70;84.80;;;;;;5074198;28;20058;-83
2022/03/07 09:30:09;;;;;;;10.15;5.82;;;7.70;84.90;;;;;;5074103;28;20081;-84
2022/03/07 09:32:35;;;;;;;8.82;5.50;;;7.70;84.90;;;;;;5074146;28;20031;-85
2022/03/07 09:35:01;;;;;;;12.05;6.85;;;7.70;84.70;;;;;;5073981;28;20504;-85
2022/03/07 09:37:27;;;;;;;11.25;5.95;;;7.70;84.70;;;;;;5073974;28;20122;-84
2022/03/07 09:39:52;;;;;;;9.80;6.22;;;7.70;84.90;;;;;;5074403;28;20039;-83
2022/03/07 09:42:18;;;;;;;13.70;9.07;;;7.80;84.40;;;;;;5080666;28;20103;-84
2022/03/07 09:44:44;;;;;;;23.75;9.30;;;7.50;80.10;;;;;;5074646;28;20029;-83
2022/03/07 09:47:10;;;;;;;12.57;8.30;;;7.10;83.20;;;;;;5074147;28;20031;-83
2022/03/07 09:49:36;;;;;;;10.57;7.85;;;7.70;84.70;;;;;;5074002;28;20052;-83
2022/03/07 09:52:02;;;;;;;12.15;7.30;;;8.30;83.90;;;;;;5073253;28;20425;-83
2022/03/07 09:54:28;;;;;;;10.90;7.15;;;8.90;82.90;;;;;;5073610;28;20059;-83
2022/03/07 09:56:55;;;;;;;13.48;7.07;;;9.30;81.90;;;;;;5073606;28;20052;-83
2022/03/07 09:59:22;;;;;;;9.68;6.75;;;9.70;81.00;;;;;;5074869;28;20405;-83
2022/03/07 10:02:02;;;;;;;10.90;6.68;;;9.90;80.10;;;;;;5074869;28;20017;-83
2022/03/07 10:04:30;;;;;;;9.65;6.82;;;10.20;79.40;;;;;;5073228;28;20044;-83
2022/03/07 10:06:56;;;;;;;10.15;6.65;;;10.40;78.90;;;;;;5073721;28;20021;-83
2022/03/07 10:09:25;;;;;;;9.95;6.25;;;10.60;78.80;;;;;;5073340;28;20032;-83
2022/03/07 10:12:03;;;;;;;8.35;6.03;;;10.70;78.20;;;;;;5074545;28;20016;-83
2022/03/07 10:14:29;;;;;;;11.80;6.68;;;10.70;77.60;;;;;;5074540;28;20018;-83
2022/03/07 10:16:55;;;;;;;12.27;6.70;;;10.80;77.20;;;;;;5073184;28;20120;-84
2022/03/07 10:19:21;;;;;;;9.00;5.97;;;10.80;77.30;;;;;;5073397;28;20544;-84
2022/03/07 10:21:50;;;;;;;8.55;5.63;;;10.90;77.20;;;;;;5073145;28;20148;-84
2022/03/07 10:24:16;;;;;;;8.45;6.15;;;10.90;76.90;;;;;;5073201;28;20020;-84
2022/03/07 10:26:43;;;;;;;7.53;5.65;;;11.00;76.70;;;;;;5073094;28;20027;-84
2022/03/07 10:29:09;;;;;;;8.60;5.68;;;10.90;76.00;;;;;;5074493;28;20021;-84
2022/03/07 10:31:37;;;;;;;8.18;5.70;;;10.90;76.60;;;;;;5072697;28;20039;-84
2022/03/07 10:34:05;;;;;;;8.55;5.30;;;10.90;76.20;;;;;;5072807;28;20012;-84
2022/03/07 10:36:37;;;;;;;8.60;6.20;;;10.90;76.30;;;;;;5072774;28;20024;-84
2022/03/07 10:39:11;;;;;;;7.75;5.68;;;10.90;76.00;;;;;;5072963;28;20106;-84
2022/03/07 10:41:39;;;;;;;7.60;5.38;;;10.90;75.90;;;;;;5073962;28;20027;-84
2022/03/07 10:44:07;;;;;;;6.65;5.22;;;10.90;75.90;;;;;;5072804;28;20024;-83
2022/03/07 10:46:33;;;;;;;8.27;5.53;;;10.90;75.90;;;;;;5072457;28;20020;-83
2022/03/07 10:48:59;;;;;;;6.60;5.10;;;10.70;76.00;;;;;;5072544;28;20507;-84
2022/03/07 10:51:28;;;;;;;8.57;5.68;;;10.60;76.00;;;;;;5072463;28;20024;-84
2022/03/07 10:53:54;;;;;;;8.07;5.43;;;10.60;76.30;;;;;;5072518;28;20024;-84
2022/03/07 10:56:23;;;;;;;7.68;5.47;;;10.40;76.30;;;;;;5072407;28;20029;-85
2022/03/07 10:58:54;;;;;;;7.20;5.18;;;10.30;76.40;;;;;;5072271;28;20021;-85
2022/03/07 11:01:31;;;;;;;7.78;5.28;;;10.30;76.80;;;;;;5073503;28;20070;-84
2022/03/07 11:03:58;;;;;;;7.78;5.60;;;10.20;77.30;;;;;;5072413;28;20035;-84
2022/03/07 11:06:27;;;;;;;7.30;5.40;;;10.10;76.80;;;;;;5072394;28;20128;-84
2022/03/07 11:08:54;;;;;;;8.90;5.60;;;10.10;77.10;;;;;;5072339;28;20028;-84
2022/03/07 11:11:21;;;;;;;9.57;5.80;;;10.10;77.10;;;;;;5072502;28;20070;-85
2022/03/07 11:13:55;;;;;;;9.05;5.63;;;10.10;77.10;;;;;;5073436;28;20108;-84
2022/03/07 11:16:22;;;;;;;8.88;5.80;;;10.10;76.80;;;;;;5072307;28;20458;-84
2022/03/07 11:18:54;;;;;;;9.02;6.28;;;10.20;76.90;;;;;;5071955;28;20029;-84
2022/03/07 11:21:22;;;;;;;7.10;5.07;;;10.20;76.90;;;;;;5073477;28;20025;-84
2022/03/07 11:23:48;;;;;;;7.38;5.60;;;10.10;76.90;;;;;;5073132;28;20062;-83
2022/03/07 11:26:14;;;;;;;9.50;6.22;;;10.10;76.90;;;;;;5073266;28;20051;-83
2022/03/07 11:28:40;;;;;;;8.55;6.40;;;10.10;76.70;;;;;;5071853;28;20032;-83
2022/03/07 11:31:05;;;;;;;8.82;6.47;;;10.10;76.80;;;;;;5071963;28;20051;-84
2022/03/07 11:33:34;;;;;;;8.15;6.55;;;10.00;77.20;;;;;;5071860;28;20021;-84
2022/03/07 11:36:02;;;;;;;8.85;5.95;;;9.90;77.40;;;;;;5071889;28;20028;-83
2022/03/07 11:38:31;;;;;;;9.75;6.82;;;9.80;77.30;;;;;;5073018;28;20107;-83
2022/03/07 11:41:07;;;;;;;9.27;6.60;;;9.80;77.30;;;;;;5073125;28;20495;-84
2022/03/07 11:43:35;;;;;;;11.15;6.53;;;9.80;77.50;;;;;;5071972;28;20028;-83
2022/03/07 11:46:03;;;;;;;9.85;6.53;;;9.80;77.10;;;;;;5072118;28;20465;-83
2022/03/07 11:48:44;;;;;;;8.88;5.93;;;9.80;77.40;;;;;;5071779;28;20024;-83
2022/03/07 11:51:18;;;;;;;10.52;6.85;;;9.90;77.20;;;;;;5071815;28;20032;-83
2022/03/07 11:53:45;;;;;;;10.15;6.30;;;9.90;76.90;;;;;;5073016;28;20021;-83
2022/03/07 11:56:25;;;;;;;8.60;6.40;;;10.10;77.00;;;;;;5071601;28;20033;-83
2022/03/07 11:58:54;;;;;;;9.38;6.72;;;10.10;76.70;;;;;;5071442;28;20025;-83
2022/03/07 12:01:20;;;;;;;9.43;6.13;;;10.20;76.70;;;;;;5073326;28;20099;-83
2022/03/07 12:03:49;;;;;;;9.57;6.10;;;10.20;76.50;;;;;;5071753;28;20074;-83
2022/03/07 12:06:18;;;;;;;8.20;6.30;;;10.20;76.20;;;;;;5071461;28;20063;-83
2022/03/07 12:08:53;;;;;;;8.70;6.40;;;10.20;76.30;;;;;;5071570;28;20078;-83
2022/03/07 12:11:27;;;;;;;9.10;6.18;;;10.20;76.60;;;;;;5071665;28;20029;-83
2022/03/07 12:13:54;;;;;;;9.73;6.30;;;10.20;76.30;;;;;;5074185;28;20037;-83
2022/03/07 12:16:34;;;;;;;9.15;6.57;;;10.30;76.30;;;;;;5075453;28;20036;-83
2022/03/07 12:19:19;;;;;;;7.93;6.10;;;10.20;76.20;;;;;;5076672;28;20028;-83
2022/03/07 12:21:46;;;;;;;8.05;6.05;;;10.20;76.40;;;;;;5075424;28;20024;-83
2022/03/07 12:24:13;;;;;;;9.18;6.78;;;10.20;76.30;;;;;;5075475;28;20016;-83
2022/03/07 12:26:56;;;;;;;7.72;6.03;;;10.20;76.00;;;;;;5076591;28;20016;-83
2022/03/07 12:29:25;;;;;;;9.70;6.13;;;10.20;76.30;;;;;;5076630;28;20025;-83
2022/03/07 12:31:59;;;;;;;8.60;5.90;;;10.20;76.00;;;;;;5075454;28;20454;-84
2022/03/07 12:34:29;;;;;;;9.90;5.88;;;10.30;76.00;;;;;;5075293;28;20027;-83
2022/03/07 12:37:08;;;;;;;8.18;5.80;;;10.20;75.80;;;;;;5076273;28;20024;-84
2022/03/07 12:39:55;;;;;;;8.65;5.82;;;10.30;75.70;;;;;;5076364;28;20079;-83
2022/03/07 12:42:25;;;;;;;11.70;6.45;;;10.30;75.60;;;;;;5076520;28;20021;-83
2022/03/07 12:44:51;;;;;;;9.77;5.78;;;10.40;75.60;;;;;;5074900;28;20021;-83
2022/03/07 12:47:23;;;;;;;8.57;6.38;;;10.40;75.50;;;;;;5076488;28;20033;-83
2022/03/07 12:49:50;;;;;;;8.98;6.18;;;10.40;75.20;;;;;;5075227;28;20383;-83
2022/03/07 12:52:34;;;;;;;7.85;5.47;;;10.50;75.10;;;;;;5076057;28;20033;-83